createdAt,value
2018-06-16T00:00:33.983Z,14.06
2018-06-16T00:03:01.662Z,14.14
2018-06-16T00:05:29.418Z,14.16
2018-06-16T00:07:57.167Z,14.22
2018-06-16T00:10:24.878Z,14.10
2018-06-16T00:12:52.562Z,14.00
2018-06-16T00:15:20.292Z,13.98
2018-06-16T00:17:47.979Z,13.89
2018-06-16T00:20:15.662Z,13.88
2018-06-16T00:22:43.366Z,14.05
2018-06-16T00:25:11.071Z,13.92
2018-06-16T00:27:38.776Z,13.90
2018-06-16T00:30:06.423Z,13.97
2018-06-16T00:32:34.139Z,13.88
2018-06-16T00:35:01.855Z,13.78
2018-06-16T00:37:29.535Z,13.75
2018-06-16T00:39:57.250Z,13.67
2018-06-16T00:42:25.023Z,13.61
2018-06-16T00:44:52.985Z,13.59
2018-06-16T00:47:20.646Z,13.64
2018-06-16T00:49:48.325Z,13.64
2018-06-16T00:52:15.989Z,13.56
2018-06-16T00:54:43.684Z,13.48
2018-06-16T00:57:17.231Z,13.42
2018-06-16T00:59:44.837Z,13.43
2018-06-16T01:02:12.495Z,13.41
2018-06-16T01:04:40.181Z,13.31
2018-06-16T01:07:07.847Z,13.22
2018-06-16T01:09:35.732Z,13.17
2018-06-16T01:12:03.415Z,13.16
2018-06-16T01:14:31.107Z,13.08
2018-06-16T01:16:58.902Z,12.95
2018-06-16T01:19:26.670Z,12.99
2018-06-16T01:21:54.395Z,12.98
2018-06-16T01:24:22.066Z,12.97
2018-06-16T01:26:49.814Z,12.99
2018-06-16T01:29:17.502Z,12.97
2018-06-16T01:31:45.146Z,12.96
2018-06-16T01:34:12.822Z,12.92
2018-06-16T01:36:40.537Z,12.88
2018-06-16T01:39:09.687Z,12.86
2018-06-16T01:41:37.501Z,13.02
2018-06-16T01:44:05.515Z,12.97
2018-06-16T01:46:33.420Z,12.94
2018-06-16T01:49:01.496Z,12.91
2018-06-16T01:51:29.192Z,12.87
2018-06-16T01:53:56.925Z,12.98
2018-06-16T01:56:24.596Z,12.84
2018-06-16T01:58:52.610Z,12.74
2018-06-16T02:01:20.323Z,12.72
2018-06-16T02:03:48.003Z,12.69
2018-06-16T02:06:15.659Z,12.60
2018-06-16T02:08:43.361Z,12.63
2018-06-16T02:11:11.073Z,12.60
2018-06-16T02:13:38.733Z,12.65
2018-06-16T02:16:06.410Z,12.61
2018-06-16T02:18:34.071Z,12.58
2018-06-16T02:21:02.015Z,12.60
2018-06-16T02:23:29.711Z,12.60
2018-06-16T02:25:57.387Z,12.53
2018-06-16T02:28:25.065Z,12.47
2018-06-16T02:30:52.748Z,12.44
2018-06-16T02:33:20.398Z,12.38
2018-06-16T02:35:48.232Z,12.45
2018-06-16T02:38:15.991Z,12.34
2018-06-16T02:40:43.759Z,12.30
2018-06-16T02:43:11.514Z,12.34
2018-06-16T02:45:40.278Z,12.27
2018-06-16T02:48:08.061Z,12.16
2018-06-16T02:50:35.965Z,12.22
2018-06-16T02:53:03.567Z,12.16
2018-06-16T02:55:31.283Z,12.20
2018-06-16T02:57:58.947Z,12.13
2018-06-16T03:00:26.785Z,12.17
2018-06-16T03:02:54.451Z,12.22
2018-06-16T03:05:22.734Z,12.30
2018-06-16T03:07:50.882Z,12.32
2018-06-16T03:10:18.617Z,12.30
2018-06-16T03:12:46.293Z,12.16
2018-06-16T03:15:14.035Z,12.06
2018-06-16T03:17:41.794Z,12.20
2018-06-16T03:20:09.495Z,12.01
2018-06-16T03:22:37.233Z,11.92
2018-06-16T03:25:04.915Z,11.86
2018-06-16T03:27:32.566Z,11.75
2018-06-16T03:30:00.242Z,11.66
2018-06-16T03:32:27.931Z,11.66
2018-06-16T03:34:55.951Z,11.69
2018-06-16T03:37:23.714Z,11.76
2018-06-16T03:39:51.533Z,11.68
2018-06-16T03:42:19.184Z,11.68
2018-06-16T03:44:46.888Z,11.70
2018-06-16T03:47:14.595Z,11.74
2018-06-16T03:49:42.257Z,11.84
2018-06-16T03:52:10.102Z,11.91
2018-06-16T03:54:37.863Z,12.03
2018-06-16T03:57:05.521Z,12.09
2018-06-16T03:59:33.192Z,12.12
2018-06-16T04:02:00.878Z,12.22
2018-06-16T04:04:28.543Z,12.37
2018-06-16T04:06:56.223Z,12.46
2018-06-16T04:09:23.939Z,12.52
2018-06-16T04:11:51.606Z,12.60
2018-06-16T04:14:19.883Z,12.61
2018-06-16T04:16:47.819Z,12.75
2018-06-16T04:19:15.602Z,12.79
2018-06-16T04:21:43.378Z,12.94
2018-06-16T04:24:11.051Z,13.16
2018-06-16T04:26:38.718Z,13.32
2018-06-16T04:29:06.435Z,13.38
2018-06-16T04:31:34.151Z,13.40
2018-06-16T04:34:01.927Z,13.51
2018-06-16T04:36:29.612Z,13.69
2018-06-16T04:38:57.406Z,13.81
2018-06-16T04:41:25.083Z,13.94
2018-06-16T04:43:52.782Z,14.13
2018-06-16T04:46:20.476Z,14.44
2018-06-16T04:48:48.154Z,14.57
2018-06-16T04:51:16.467Z,14.62
2018-06-16T04:53:44.167Z,15.04
2018-06-16T04:56:11.893Z,15.01
2018-06-16T04:58:39.612Z,15.08
2018-06-16T05:01:07.307Z,15.43
2018-06-16T05:03:35.043Z,15.66
2018-06-16T05:06:02.840Z,15.62
2018-06-16T05:08:30.694Z,15.82
2018-06-16T05:10:58.482Z,16.07
2018-06-16T05:13:26.155Z,16.15
2018-06-16T05:15:53.884Z,16.61
2018-06-16T05:18:21.555Z,16.28
2018-06-16T05:20:49.331Z,16.53
2018-06-16T05:23:17.011Z,16.79
2018-06-16T05:25:44.747Z,16.87
2018-06-16T05:28:12.419Z,16.94
2018-06-16T05:30:40.101Z,17.15
2018-06-16T05:33:07.766Z,17.39
2018-06-16T05:35:35.453Z,17.64
2018-06-16T05:38:03.173Z,17.71
2018-06-16T05:40:30.992Z,17.86
2018-06-16T05:42:58.731Z,18.09
2018-06-16T05:45:26.410Z,18.33
2018-06-16T05:47:54.134Z,18.54
2018-06-16T05:50:21.992Z,18.84
2018-06-16T05:52:49.691Z,18.62
2018-06-16T05:55:17.359Z,19.01
2018-06-16T05:57:45.087Z,19.28
2018-06-16T06:00:12.803Z,19.50
2018-06-16T06:02:40.491Z,19.74
2018-06-16T06:05:08.214Z,19.98
2018-06-16T06:07:35.946Z,20.11
2018-06-16T06:10:03.686Z,20.18
2018-06-16T06:12:31.370Z,20.43
2018-06-16T06:14:59.286Z,20.78
2018-06-16T06:17:26.951Z,21.00
2018-06-16T06:19:54.610Z,20.90
2018-06-16T06:22:22.313Z,21.14
2018-06-16T06:24:49.994Z,21.34
2018-06-16T06:27:17.708Z,21.28
2018-06-16T06:29:45.430Z,21.42
2018-06-16T06:32:13.138Z,21.64
2018-06-16T06:34:40.859Z,22.03
2018-06-16T06:37:08.548Z,22.24
2018-06-16T06:39:36.254Z,22.29
2018-06-16T06:42:03.993Z,22.58
2018-06-16T06:44:31.818Z,22.77
2018-06-16T06:46:59.514Z,23.03
2018-06-16T06:49:27.254Z,23.28
2018-06-16T06:51:54.982Z,23.81
2018-06-16T06:54:22.662Z,24.29
2018-06-16T06:56:50.368Z,24.47
2018-06-16T06:59:18.311Z,24.59
2018-06-16T07:01:45.994Z,24.58
2018-06-16T07:04:13.704Z,24.49
2018-06-16T07:06:41.420Z,25.06
2018-06-16T07:09:10.476Z,25.21
2018-06-16T07:11:38.182Z,25.25
2018-06-16T07:14:05.922Z,25.88
2018-06-16T07:16:33.631Z,26.05
2018-06-16T07:19:01.331Z,26.22
2018-06-16T07:21:29.063Z,25.91
2018-06-16T07:23:57.768Z,26.02
2018-06-16T07:26:25.528Z,26.57
2018-06-16T07:28:53.298Z,26.44
2018-06-16T07:31:21.023Z,26.87
2018-06-16T07:33:48.767Z,27.25
2018-06-16T07:36:16.517Z,27.93
2018-06-16T07:38:44.357Z,27.93
2018-06-16T07:41:12.059Z,27.71
2018-06-16T07:43:39.743Z,27.91
2018-06-16T07:46:07.463Z,28.40
2018-06-16T07:48:35.139Z,28.46
2018-06-16T07:51:02.866Z,28.95
2018-06-16T07:53:30.606Z,29.25
2018-06-16T07:55:58.316Z,29.18
2018-06-16T07:58:26.079Z,29.12
2018-06-16T08:00:53.831Z,29.78
2018-06-16T08:03:21.552Z,29.55
2018-06-16T08:05:49.263Z,28.24
2018-06-16T08:08:17.006Z,28.91
2018-06-16T08:10:44.702Z,29.04
2018-06-16T08:13:12.492Z,29.59
2018-06-16T08:15:40.214Z,30.02
2018-06-16T08:18:07.951Z,29.34
2018-06-16T08:20:35.854Z,29.23
2018-06-16T08:23:03.577Z,29.67
2018-06-16T08:25:31.296Z,29.37
2018-06-16T08:27:59.018Z,29.95
2018-06-16T08:30:26.715Z,30.70
2018-06-16T08:32:54.427Z,30.94
2018-06-16T08:35:22.159Z,31.36
2018-06-16T08:37:49.851Z,31.45
2018-06-16T08:40:17.519Z,32.29
2018-06-16T08:42:45.198Z,31.19
2018-06-16T08:45:12.932Z,30.79
2018-06-16T08:47:40.620Z,31.72
2018-06-16T08:50:08.318Z,31.71
2018-06-16T08:52:36.032Z,31.25
2018-06-16T08:55:04.113Z,31.75
2018-06-16T08:57:31.807Z,31.98
2018-06-16T08:59:59.507Z,31.49
2018-06-16T09:02:27.190Z,31.99
2018-06-16T09:04:54.928Z,32.93
2018-06-16T09:07:22.611Z,33.59
2018-06-16T09:09:50.680Z,34.25
2018-06-16T09:12:18.412Z,33.69
2018-06-16T09:14:46.103Z,33.83
2018-06-16T09:17:13.841Z,34.52
2018-06-16T09:19:41.534Z,34.57
2018-06-16T09:22:09.261Z,34.91
2018-06-16T09:24:36.971Z,35.17
2018-06-16T09:27:04.687Z,33.46
2018-06-16T09:29:32.403Z,33.26
2018-06-16T09:32:00.090Z,33.52
2018-06-16T09:34:27.811Z,32.62
2018-06-16T09:36:55.602Z,33.39
2018-06-16T09:39:23.292Z,34.25
2018-06-16T09:41:51.005Z,33.52
2018-06-16T09:44:18.694Z,33.45
2018-06-16T09:46:46.419Z,33.47
2018-06-16T09:49:14.130Z,33.25
2018-06-16T09:51:42.123Z,33.48
2018-06-16T09:54:09.815Z,32.88
2018-06-16T09:56:37.644Z,33.56
2018-06-16T09:59:05.422Z,33.41
2018-06-16T10:01:33.099Z,33.54
2018-06-16T10:04:00.836Z,34.14
2018-06-16T10:06:28.521Z,34.05
2018-06-16T10:08:56.266Z,33.69
2018-06-16T10:11:24.980Z,33.86
2018-06-16T10:13:52.823Z,34.17
2018-06-16T10:16:20.547Z,34.20
2018-06-16T10:18:48.248Z,33.91
2018-06-16T10:21:15.986Z,34.05
2018-06-16T10:23:43.671Z,34.58
2018-06-16T10:26:11.498Z,34.88
2018-06-16T10:28:39.184Z,34.89
2018-06-16T10:31:06.919Z,33.90
2018-06-16T10:33:34.631Z,34.09
2018-06-16T10:36:02.332Z,33.24
2018-06-16T10:38:30.222Z,33.22
2018-06-16T10:40:57.897Z,33.55
2018-06-16T10:43:25.577Z,33.69
2018-06-16T10:45:53.382Z,33.43
2018-06-16T10:48:21.054Z,33.78
2018-06-16T10:50:49.211Z,33.67
2018-06-16T10:53:16.937Z,33.78
2018-06-16T10:55:44.757Z,33.34
2018-06-16T10:58:12.444Z,33.10
2018-06-16T11:00:40.183Z,32.53
2018-06-16T11:03:08.188Z,32.41
2018-06-16T11:05:35.868Z,32.60
2018-06-16T11:08:03.587Z,32.91
2018-06-16T11:10:31.344Z,32.55
2018-06-16T11:12:59.043Z,32.40
2018-06-16T11:15:26.733Z,32.31
2018-06-16T11:17:54.460Z,31.89
2018-06-16T11:20:22.131Z,31.60
2018-06-16T11:22:49.846Z,31.36
2018-06-16T11:25:17.583Z,30.66
2018-06-16T11:27:45.281Z,30.79
2018-06-16T11:30:13.278Z,30.72
2018-06-16T11:32:40.964Z,30.92
2018-06-16T11:35:08.718Z,30.38
2018-06-16T11:37:36.876Z,30.11
2018-06-16T11:40:04.864Z,29.66
2018-06-16T11:42:32.535Z,29.85
2018-06-16T11:45:00.242Z,29.91
2018-06-16T11:47:27.949Z,30.24
2018-06-16T11:49:55.720Z,30.28
2018-06-16T11:52:23.463Z,29.56
2018-06-16T11:54:51.474Z,29.48
2018-06-16T11:57:19.180Z,29.51
2018-06-16T11:59:46.900Z,29.58
2018-06-16T12:02:14.601Z,29.18
2018-06-16T12:04:42.240Z,29.32
2018-06-16T12:07:09.917Z,29.27
2018-06-16T12:09:37.662Z,29.02
2018-06-16T12:12:05.443Z,29.25
2018-06-16T12:14:33.123Z,29.51
2018-06-16T12:17:00.865Z,28.74
2018-06-16T12:19:28.554Z,28.39
2018-06-16T12:21:56.227Z,28.25
2018-06-16T12:24:23.936Z,28.25
2018-06-16T12:26:51.631Z,28.21
2018-06-16T12:29:20.441Z,28.49
2018-06-16T12:31:48.143Z,28.76
2018-06-16T12:34:15.840Z,28.95
2018-06-16T12:36:43.539Z,28.83
2018-06-16T12:39:11.481Z,28.33
2018-06-16T12:41:39.478Z,28.58
2018-06-16T12:44:07.196Z,28.19
2018-06-16T12:46:34.879Z,28.04
2018-06-16T12:49:02.643Z,28.16
2018-06-16T12:51:30.338Z,28.23
2018-06-16T12:53:58.090Z,28.14
2018-06-16T12:56:26.256Z,28.25
2018-06-16T12:58:53.950Z,28.52
2018-06-16T13:01:21.723Z,28.46
2018-06-16T13:03:49.722Z,28.50
2018-06-16T13:06:17.430Z,28.34
2018-06-16T13:08:45.126Z,28.53
2018-06-16T13:11:13.135Z,28.62
2018-06-16T13:13:40.818Z,28.87
2018-06-16T13:16:08.515Z,28.63
2018-06-16T13:18:36.246Z,28.66
2018-06-16T13:21:03.947Z,28.51
2018-06-16T13:23:31.698Z,28.33
2018-06-16T13:25:59.418Z,28.19
2018-06-16T13:28:27.094Z,28.06
2018-06-16T13:30:54.811Z,27.88
2018-06-16T13:33:22.557Z,28.17
2018-06-16T13:35:50.256Z,27.83
2018-06-16T13:38:17.979Z,27.84
2018-06-16T13:40:45.671Z,27.96
2018-06-16T13:43:13.473Z,27.81
2018-06-16T13:45:41.266Z,27.90
2018-06-16T13:48:09.011Z,27.94
2018-06-16T13:50:36.694Z,27.97
2018-06-16T13:53:04.567Z,28.20
2018-06-16T13:55:32.263Z,28.34
2018-06-16T13:58:00.014Z,28.43
2018-06-16T14:00:27.735Z,28.58
2018-06-16T14:02:55.438Z,28.61
2018-06-16T14:05:23.116Z,28.45
2018-06-16T14:07:50.845Z,28.15
2018-06-16T14:10:19.603Z,28.60
2018-06-16T14:12:47.293Z,28.30
2018-06-16T14:15:14.974Z,28.35
2018-06-16T14:17:42.719Z,28.18
2018-06-16T14:20:10.591Z,27.79
2018-06-16T14:22:38.696Z,27.75
2018-06-16T14:25:06.415Z,27.95
2018-06-16T14:27:34.191Z,27.82
2018-06-16T14:30:02.936Z,27.97
2018-06-16T14:32:30.670Z,28.04
2018-06-16T14:34:58.342Z,27.97
2018-06-16T14:37:26.087Z,27.67
2018-06-16T14:39:53.791Z,27.69
2018-06-16T14:42:21.555Z,27.61
2018-06-16T14:44:49.264Z,27.39
2018-06-16T14:47:16.954Z,27.46
2018-06-16T14:49:44.648Z,27.48
2018-06-16T14:52:12.407Z,27.71
2018-06-16T14:54:40.146Z,27.86
2018-06-16T14:57:07.832Z,27.92
2018-06-16T14:59:35.508Z,28.03
2018-06-16T15:02:03.275Z,28.07
2018-06-16T15:04:31.003Z,28.11
2018-06-16T15:06:58.959Z,28.09
2018-06-16T15:09:26.717Z,27.58
2018-06-16T15:11:54.369Z,27.68
2018-06-16T15:14:22.131Z,27.50
2018-06-16T15:16:49.866Z,27.45
2018-06-16T15:19:17.615Z,27.39
2018-06-16T15:21:45.315Z,27.35
2018-06-16T15:24:12.990Z,27.52
2018-06-16T15:26:40.946Z,27.30
2018-06-16T15:29:08.674Z,27.02
2018-06-16T15:31:36.413Z,27.02
2018-06-16T15:34:04.252Z,27.14
2018-06-16T15:36:32.005Z,27.09
2018-06-16T15:38:59.733Z,27.13
2018-06-16T15:41:27.471Z,26.92
2018-06-16T15:43:55.226Z,26.75
2018-06-16T15:46:22.951Z,26.62
2018-06-16T15:48:50.651Z,26.53
2018-06-16T15:51:18.407Z,26.66
2018-06-16T15:53:46.151Z,26.50
2018-06-16T15:56:13.846Z,26.34
2018-06-16T15:58:41.530Z,26.37
2018-06-16T16:01:09.252Z,26.48
2018-06-16T16:03:36.963Z,26.38
2018-06-16T16:06:04.812Z,26.12
2018-06-16T16:08:32.527Z,26.07
2018-06-16T16:11:00.202Z,26.19
2018-06-16T16:13:27.914Z,26.22
2018-06-16T16:15:55.708Z,25.96
2018-06-16T16:18:23.449Z,26.00
2018-06-16T16:20:51.122Z,26.06
2018-06-16T16:23:18.877Z,25.97
2018-06-16T16:25:46.596Z,25.89
2018-06-16T16:28:14.263Z,25.91
2018-06-16T16:30:42.340Z,25.89
2018-06-16T16:33:10.059Z,25.81
2018-06-16T16:35:37.737Z,25.89
2018-06-16T16:38:05.602Z,25.97
2018-06-16T16:40:33.294Z,25.91
2018-06-16T16:43:00.963Z,25.81
2018-06-16T16:45:28.727Z,25.80
2018-06-16T16:47:56.505Z,25.83
2018-06-16T16:50:24.194Z,25.63
2018-06-16T16:52:52.023Z,25.52
2018-06-16T16:55:19.719Z,25.43
2018-06-16T16:57:47.466Z,25.48
2018-06-16T17:00:15.234Z,25.57
2018-06-16T17:02:42.926Z,25.47
2018-06-16T17:05:10.623Z,25.50
2018-06-16T17:07:38.314Z,25.22
2018-06-16T17:10:06.161Z,25.20
2018-06-16T17:12:33.850Z,25.14
2018-06-16T17:15:01.559Z,25.06
2018-06-16T17:17:29.314Z,25.05
2018-06-16T17:19:56.994Z,25.05
2018-06-16T17:22:25.011Z,24.99
2018-06-16T17:24:52.762Z,25.06
2018-06-16T17:27:20.487Z,25.14
2018-06-16T17:29:48.259Z,25.00
2018-06-16T17:32:15.936Z,24.90
2018-06-16T17:34:43.634Z,24.81
2018-06-16T17:37:11.354Z,24.78
2018-06-16T17:39:39.031Z,24.75
2018-06-16T17:42:06.746Z,24.75
2018-06-16T17:44:34.467Z,24.73
2018-06-16T17:47:02.203Z,24.62
2018-06-16T17:49:29.931Z,24.62
2018-06-16T17:51:57.618Z,24.47
2018-06-16T17:54:25.343Z,24.23
2018-06-16T17:56:53.042Z,24.15
2018-06-16T17:59:20.742Z,24.17
2018-06-16T18:01:48.954Z,24.08
2018-06-16T18:04:16.679Z,24.06
2018-06-16T18:06:44.453Z,23.96
2018-06-16T18:09:12.679Z,23.88
2018-06-16T18:11:40.482Z,23.87
2018-06-16T18:14:08.643Z,23.91
2018-06-16T18:16:36.306Z,23.81
2018-06-16T18:19:04.059Z,23.74
2018-06-16T18:21:32.074Z,23.66
2018-06-16T18:23:59.799Z,23.70
2018-06-16T18:26:27.512Z,23.64
2018-06-16T18:28:55.283Z,23.61
2018-06-16T18:31:23.971Z,23.63
2018-06-16T18:33:51.658Z,23.61
2018-06-16T18:36:19.311Z,23.59
2018-06-16T18:38:47.016Z,23.59
2018-06-16T18:41:14.715Z,23.50
2018-06-16T18:43:42.417Z,23.48
2018-06-16T18:46:10.192Z,23.41
2018-06-16T18:48:37.925Z,23.28
2018-06-16T18:51:05.674Z,23.31
2018-06-16T18:53:33.351Z,23.09
2018-06-16T18:56:01.151Z,23.06
2018-06-16T18:58:28.846Z,23.06
2018-06-16T19:00:56.534Z,22.99
2018-06-16T19:03:24.209Z,22.99
2018-06-16T19:05:51.931Z,23.18
2018-06-16T19:08:19.667Z,23.23
2018-06-16T19:10:47.391Z,23.12
2018-06-16T19:13:15.071Z,23.00
2018-06-16T19:15:42.860Z,22.76
2018-06-16T19:18:10.576Z,22.76
2018-06-16T19:20:38.301Z,22.67
2018-06-16T19:23:07.137Z,22.62
2018-06-16T19:25:34.751Z,22.72
2018-06-16T19:28:02.522Z,22.75
2018-06-16T19:30:30.242Z,22.92
2018-06-16T19:32:57.931Z,22.74
2018-06-16T19:35:25.687Z,22.47
2018-06-16T19:37:53.436Z,22.46
2018-06-16T19:40:21.152Z,22.41
2018-06-16T19:42:48.871Z,22.41
2018-06-16T19:45:16.569Z,22.47
2018-06-16T19:47:44.296Z,22.17
2018-06-16T19:50:12.023Z,22.06
2018-06-16T19:52:39.785Z,21.91
2018-06-16T19:55:07.654Z,21.85
2018-06-16T19:57:35.339Z,21.92
2018-06-16T20:00:03.170Z,22.07
2018-06-16T20:02:31.034Z,21.72
2018-06-16T20:04:59.676Z,21.57
2018-06-16T20:07:27.431Z,21.75
2018-06-16T20:09:55.181Z,21.73
2018-06-16T20:12:22.906Z,21.71
2018-06-16T20:14:50.594Z,21.72
2018-06-16T20:17:18.362Z,21.73
2018-06-16T20:19:46.147Z,21.64
2018-06-16T20:22:13.891Z,21.68
2018-06-16T20:24:41.599Z,21.58
2018-06-16T20:27:09.347Z,21.64
2018-06-16T20:29:37.286Z,21.63
2018-06-16T20:32:05.015Z,21.60
2018-06-16T20:34:32.760Z,21.64
2018-06-16T20:37:00.542Z,21.53
2018-06-16T20:39:28.234Z,21.57
2018-06-16T20:41:55.992Z,21.72
2018-06-16T20:44:23.728Z,21.59
2018-06-16T20:46:51.464Z,21.48
2018-06-16T20:49:19.123Z,21.46
2018-06-16T20:51:47.858Z,21.36
2018-06-16T20:54:15.561Z,21.32
2018-06-16T20:56:43.229Z,21.18
2018-06-16T20:59:10.956Z,21.17
2018-06-16T21:01:38.672Z,21.36
2018-06-16T21:04:06.422Z,21.16
2018-06-16T21:06:34.150Z,20.89
2018-06-16T21:09:01.923Z,20.75
2018-06-16T21:11:29.665Z,20.82
2018-06-16T21:13:57.349Z,20.74
2018-06-16T21:16:25.102Z,20.26
2018-06-16T21:18:52.815Z,20.29
2018-06-16T21:21:20.647Z,20.46
2018-06-16T21:23:48.311Z,20.39
2018-06-16T21:26:16.004Z,20.06
2018-06-16T21:28:43.687Z,19.95
2018-06-16T21:31:11.442Z,19.94
2018-06-16T21:33:39.157Z,19.96
2018-06-16T21:36:06.867Z,19.68
2018-06-16T21:38:34.640Z,19.64
2018-06-16T21:41:02.329Z,19.44
2018-06-16T21:43:30.039Z,19.31
2018-06-16T21:45:57.730Z,19.34
2018-06-16T21:48:25.450Z,19.35
2018-06-16T21:50:53.153Z,19.36
2018-06-16T21:53:20.860Z,19.36
2018-06-16T21:55:48.598Z,19.40
2018-06-16T21:58:16.293Z,19.41
2018-06-16T22:00:44.025Z,19.41
2018-06-16T22:03:11.751Z,19.35
2018-06-16T22:05:39.423Z,19.33
2018-06-16T22:08:12.835Z,19.30
2018-06-16T22:10:40.515Z,19.35
2018-06-16T22:13:08.230Z,19.33
2018-06-16T22:15:35.959Z,19.26
2018-06-16T22:18:03.702Z,19.22
2018-06-16T22:20:31.375Z,19.21
2018-06-16T22:22:59.126Z,19.14
2018-06-16T22:25:26.822Z,19.11
2018-06-16T22:27:54.495Z,19.00
2018-06-16T22:30:22.170Z,18.91
2018-06-16T22:32:49.882Z,18.90
2018-06-16T22:35:17.576Z,18.98
2018-06-16T22:37:45.278Z,18.92
2018-06-16T22:40:12.954Z,18.90
2018-06-16T22:42:41.008Z,18.74
2018-06-16T22:45:08.731Z,18.76
2018-06-16T22:47:36.436Z,18.72
2018-06-16T22:50:04.208Z,18.58
2018-06-16T22:52:31.870Z,18.51
2018-06-16T22:54:59.591Z,18.48
2018-06-16T22:57:27.395Z,18.44
2018-06-16T22:59:55.142Z,18.35
2018-06-16T23:02:22.891Z,18.25
2018-06-16T23:04:50.791Z,18.19
2018-06-16T23:07:18.592Z,18.09
2018-06-16T23:09:46.303Z,17.99
2018-06-16T23:12:13.954Z,17.96
2018-06-16T23:14:41.654Z,17.95
2018-06-16T23:17:09.358Z,17.80
2018-06-16T23:19:37.037Z,17.80
2018-06-16T23:22:04.779Z,17.93
2018-06-16T23:24:32.469Z,17.91
2018-06-16T23:27:00.195Z,17.51
2018-06-16T23:29:27.916Z,17.57
2018-06-16T23:31:55.606Z,17.49
2018-06-16T23:34:23.339Z,17.50
2018-06-16T23:36:51.114Z,17.46
2018-06-16T23:39:18.814Z,17.36
2018-06-16T23:41:46.503Z,17.33
2018-06-16T23:44:15.146Z,17.28
2018-06-16T23:46:42.860Z,17.39
2018-06-16T23:49:10.647Z,17.50
2018-06-16T23:51:38.380Z,17.54
2018-06-16T23:54:06.158Z,17.36
2018-06-16T23:56:33.874Z,17.17
2018-06-16T23:59:01.580Z,17.16
